New Nada — 3ELP9 — position and weather

sailwx.info

Track history (hours):
 
Tides and Currents Weather Stations Pressure Air Temp Water Temp Dewpoint Dewpoint Depression Visibility Wind Speed Wind Dir Waves Ship Positions

New Nada

Last reported at 2015-Sep-02 21:31 UTC. Time now 2015-Sep-02 21:48 UTC.
Position N 49°11' W 122°55'.

Length 180 m; beam 32.2 m.

Type: Cargo ship. MMSI: 356005000.

Date/timePositionNaut miles runAvg speedWind from/ knotsBaromVisibWave heightAir tempDewpointWater temp
2015-Sep-02 21:31N 49°11' W 122°55'0 0.0
2015-Sep-02 20:31N 49°11' W 122°55'0 0.0
2015-Sep-02 19:31N 49°11' W 122°55'0 0.0
2015-Sep-02 18:31N 49°11' W 122°55'0 0.0
2015-Sep-02 17:28N 49°11' W 122°55'0 0.0
2015-Sep-02 16:31N 49°11' W 122°55'0 0.0
2015-Sep-02 15:31N 49°11' W 122°55'0 0.0
2015-Sep-02 14:31N 49°11' W 122°55'0 0.0
2015-Sep-02 13:28N 49°11' W 122°55'0 0.0
2015-Sep-02 12:31N 49°11' W 122°55'0 0.0
2015-Sep-02 11:31N 49°11' W 122°55'0 0.0
2015-Sep-02 10:31N 49°11' W 122°55'0 0.0
2015-Sep-02 09:31N 49°11' W 122°55'0 0.0
2015-Sep-02 08:31N 49°11' W 122°55'0 0.0
2015-Sep-02 07:31N 49°11' W 122°55'0 0.0
2015-Sep-02 06:31N 49°11' W 122°55'0 0.0
2015-Sep-02 05:31N 49°11' W 122°55'0 0.0
2015-Sep-02 04:31N 49°11' W 122°55'0 0.0
2015-Sep-02 03:31N 49°11' W 122°55'5 5.7
2015-Sep-02 02:34N 49°09' W 123°03'1111.1
2015-Sep-02 01:33N 49°06' W 123°19'1413.8
2015-Sep-02 00:33N 48°55' W 123°06'1313.0
2015-Sep-01 23:33N 48°42' W 123°12'1716.7
2015-Sep-01 22:33N 48°26' W 123°10'1313.1
2015-Sep-01 21:34N 48°17' W 123°25'1111.0
2015-Sep-01 20:33N 48°14' W 123°41'1312.3
2015-Sep-01 19:32N 48°15' W 123°59'4013.1
2015-Sep-01 16:30N 48°29' W 124°56'1313.3
2015-Sep-01 15:33N 48°19' W 125°08'7114.2
2015-Sep-01 10:33N 47°08' W 124°58'1515.6
2015-Sep-01 09:33N 46°54' W 124°50'1615.6
2015-Sep-01 08:33N 46°39' W 124°41'1615.7
2015-Sep-01 07:33N 46°26' W 124°29'1716.5
2015-Sep-01 06:33N 46°13' W 124°13'9 9.2
2015-Sep-01 05:33N 46°15' W 124°00'1010.0
2015-Sep-01 04:33N 46°13' W 123°46'1110.9
2015-Sep-01 03:33N 46°16' W 123°31'1010.5
2015-Sep-01 02:34N 46°09' W 123°20'1313.2
2015-Sep-01 01:33N 46°08' W 123°01'1010.3
2015-Sep-01 00:33N 46°01' W 122°51'1111.5
2015-Aug-31 23:33N 45°49' W 122°48'1111.1
2015-Aug-31 22:33N 45°38' W 122°47'2 2.4
2015-Aug-31 21:33N 45°36' W 122°47'0 0.0
2015-Aug-31 20:30N 45°36' W 122°47'0 0.0
2015-Aug-31 19:24N 45°36' W 122°47'0 0.0
2015-Aug-31 18:21N 45°36' W 122°47'0 0.0
2015-Aug-31 17:27N 45°36' W 122°47'0 0.0
2015-Aug-31 16:06N 45°36' W 122°47'0 0.0
2015-Aug-31 15:33N 45°36' W 122°47'0 0.0
2015-Aug-31 14:33N 45°36' W 122°47'0 0.0
2015-Aug-31 13:33N 45°36' W 122°47'0 0.0
2015-Aug-31 12:33N 45°36' W 122°47'0 0.1
2015-Aug-31 11:33N 45°36' W 122°47'4 4.4
2015-Aug-31 10:33N 45°40' W 122°46'1010.1
2015-Aug-31 09:33N 45°50' W 122°47'1110.7
2015-Aug-31 08:33N 46°01' W 122°51'8 8.4
2015-Aug-31 07:33N 46°07' W 122°59'1010.2
2015-Aug-31 06:34N 46°10' W 123°13'9 8.9
2015-Aug-31 05:33N 46°11' W 123°26'9 8.7
2015-Aug-31 04:33N 46°15' W 123°37'1010.3
2015-Aug-31 03:34N 46°12' W 123°51'9 9.2
2015-Aug-31 02:34N 46°15' W 124°03'1212.2
2015-Aug-31 01:33N 46°08' W 124°17'9 9.5
2015-Aug-31 00:33N 46°07' W 124°30'1111.2
2015-Aug-30 23:33N 46°06' W 124°47'1212.1
2015-Aug-30 22:33N 46°07' W 125°04'1212.0
2015-Aug-30 21:33N 46°07' W 125°21'  
Track history (hours):
 
Tides and Currents Weather Stations Pressure Air Temp Water Temp Dewpoint Dewpoint Depression Visibility Wind Speed Wind Dir Waves Ship Positions

New Nada

Last reported at 2015-Sep-02 21:31 UTC. Time now 2015-Sep-02 21:48 UTC.
Position N 49°11' W 122°55'.

Length 180 m; beam 32.2 m.

Type: Cargo ship. MMSI: 356005000.

Date/timePositionNaut miles runAvg speedWind from/ knotsBaromVisibWave heightAir tempDewpointWater temp
2015-Sep-02 21:31N 49°11' W 122°55'0 0.0
2015-Sep-02 20:31N 49°11' W 122°55'0 0.0
2015-Sep-02 19:31N 49°11' W 122°55'0 0.0
2015-Sep-02 18:31N 49°11' W 122°55'0 0.0
2015-Sep-02 17:28N 49°11' W 122°55'0 0.0
2015-Sep-02 16:31N 49°11' W 122°55'0 0.0
2015-Sep-02 15:31N 49°11' W 122°55'0 0.0
2015-Sep-02 14:31N 49°11' W 122°55'0 0.0
2015-Sep-02 13:28N 49°11' W 122°55'0 0.0
2015-Sep-02 12:31N 49°11' W 122°55'0 0.0
2015-Sep-02 11:31N 49°11' W 122°55'0 0.0
2015-Sep-02 10:31N 49°11' W 122°55'0 0.0
2015-Sep-02 09:31N 49°11' W 122°55'0 0.0
2015-Sep-02 08:31N 49°11' W 122°55'0 0.0
2015-Sep-02 07:31N 49°11' W 122°55'0 0.0
2015-Sep-02 06:31N 49°11' W 122°55'0 0.0
2015-Sep-02 05:31N 49°11' W 122°55'0 0.0
2015-Sep-02 04:31N 49°11' W 122°55'0 0.0
2015-Sep-02 03:31N 49°11' W 122°55'5 5.7
2015-Sep-02 02:34N 49°09' W 123°03'1111.1
2015-Sep-02 01:33N 49°06' W 123°19'1413.8
2015-Sep-02 00:33N 48°55' W 123°06'1313.0
2015-Sep-01 23:33N 48°42' W 123°12'1716.7
2015-Sep-01 22:33N 48°26' W 123°10'1313.1
2015-Sep-01 21:34N 48°17' W 123°25'1111.0
2015-Sep-01 20:33N 48°14' W 123°41'1312.3
2015-Sep-01 19:32N 48°15' W 123°59'4013.1
2015-Sep-01 16:30N 48°29' W 124°56'1313.3
2015-Sep-01 15:33N 48°19' W 125°08'7114.2
2015-Sep-01 10:33N 47°08' W 124°58'1515.6
2015-Sep-01 09:33N 46°54' W 124°50'1615.6
2015-Sep-01 08:33N 46°39' W 124°41'1615.7
2015-Sep-01 07:33N 46°26' W 124°29'1716.5
2015-Sep-01 06:33N 46°13' W 124°13'9 9.2
2015-Sep-01 05:33N 46°15' W 124°00'1010.0
2015-Sep-01 04:33N 46°13' W 123°46'1110.9
2015-Sep-01 03:33N 46°16' W 123°31'1010.5
2015-Sep-01 02:34N 46°09' W 123°20'1313.2
2015-Sep-01 01:33N 46°08' W 123°01'1010.3
2015-Sep-01 00:33N 46°01' W 122°51'1111.5
2015-Aug-31 23:33N 45°49' W 122°48'1111.1
2015-Aug-31 22:33N 45°38' W 122°47'2 2.4
2015-Aug-31 21:33N 45°36' W 122°47'0 0.0
2015-Aug-31 20:30N 45°36' W 122°47'0 0.0
2015-Aug-31 19:24N 45°36' W 122°47'0 0.0
2015-Aug-31 18:21N 45°36' W 122°47'0 0.0
2015-Aug-31 17:27N 45°36' W 122°47'0 0.0
2015-Aug-31 16:06N 45°36' W 122°47'0 0.0
2015-Aug-31 15:33N 45°36' W 122°47'0 0.0
2015-Aug-31 14:33N 45°36' W 122°47'0 0.0
2015-Aug-31 13:33N 45°36' W 122°47'0 0.0
2015-Aug-31 12:33N 45°36' W 122°47'0 0.1
2015-Aug-31 11:33N 45°36' W 122°47'4 4.4
2015-Aug-31 10:33N 45°40' W 122°46'1010.1
2015-Aug-31 09:33N 45°50' W 122°47'1110.7
2015-Aug-31 08:33N 46°01' W 122°51'8 8.4
2015-Aug-31 07:33N 46°07' W 122°59'1010.2
2015-Aug-31 06:34N 46°10' W 123°13'9 8.9
2015-Aug-31 05:33N 46°11' W 123°26'9 8.7
2015-Aug-31 04:33N 46°15' W 123°37'1010.3
2015-Aug-31 03:34N 46°12' W 123°51'9 9.2
2015-Aug-31 02:34N 46°15' W 124°03'1212.2
2015-Aug-31 01:33N 46°08' W 124°17'9 9.5
2015-Aug-31 00:33N 46°07' W 124°30'1111.2
2015-Aug-30 23:33N 46°06' W 124°47'1212.1
2015-Aug-30 22:33N 46°07' W 125°04'1212.0
2015-Aug-30 21:33N 46°07' W 125°21'  

Dump ship's entire track history